Time;durP1;ratioP1;P1;durP2;ratioP2;P2;SDS_P1;SDS_P2;PMS_P1;PMS_P2;Temp;Humidity;BMP_temperature;BMP_pressure;BME280_temperature;BME280_humidity;BME280_pressure;Samples;Min_cycle;Max_cycle;Signal;HPM_P1;HPM_P2
2024/03/01 00:02:16;;;;;;;46.40;34.80;;;8.70;99.90;;;;;;5023010;28;20272;-55
2024/03/01 00:04:42;;;;;;;45.93;33.70;;;8.70;99.90;;;;;;5022974;28;20735;-55
2024/03/01 00:07:08;;;;;;;47.80;33.87;;;8.70;99.90;;;;;;5022414;28;20201;-55
2024/03/01 00:09:34;;;;;;;45.07;34.50;;;8.70;99.90;;;;;;5023109;28;20437;-56
2024/03/01 00:11:59;;;;;;;45.90;32.87;;;8.70;99.90;;;;;;5022007;28;20210;-57
2024/03/01 00:14:25;;;;;;;48.60;35.80;;;8.80;99.90;;;;;;5021702;28;20187;-57
2024/03/01 00:16:51;;;;;;;44.60;32.80;;;8.80;99.90;;;;;;5023167;28;20321;-55
2024/03/01 00:19:17;;;;;;;44.80;33.93;;;8.80;99.90;;;;;;5022516;28;20998;-54
2024/03/01 00:21:42;;;;;;;43.83;34.37;;;8.80;99.90;;;;;;5023329;28;20205;-53
2024/03/01 00:24:08;;;;;;;44.87;35.37;;;8.80;99.90;;;;;;5022612;28;20449;-57
2024/03/01 00:26:33;;;;;;;45.50;33.47;;;8.80;99.90;;;;;;5022678;28;20192;-55
2024/03/01 00:28:59;;;;;;;45.60;34.40;;;8.80;99.90;;;;;;5022126;28;20175;-58
2024/03/01 00:31:25;;;;;;;47.00;34.80;;;8.90;99.90;;;;;;5022031;28;20702;-57
2024/03/01 00:33:51;;;;;;;47.20;34.97;;;8.90;99.90;;;;;;5023002;28;20436;-58
2024/03/01 00:36:17;;;;;;;41.90;34.20;;;8.90;99.90;;;;;;5022296;28;20273;-56
2024/03/01 00:38:42;;;;;;;44.80;35.00;;;8.90;99.90;;;;;;5022407;28;20189;-54
2024/03/01 00:41:08;;;;;;;47.97;34.57;;;8.90;99.90;;;;;;5022910;28;20200;-57
2024/03/01 00:43:35;;;;;;;47.90;35.83;;;8.90;99.90;;;;;;5021601;28;20533;-56
2024/03/01 00:46:00;;;;;;;42.63;34.77;;;8.90;99.90;;;;;;5015229;28;20297;-57
2024/03/01 00:48:26;;;;;;;46.37;32.73;;;8.90;99.90;;;;;;5022026;28;20437;-57
2024/03/01 00:50:52;;;;;;;44.97;34.27;;;8.90;99.90;;;;;;5022547;28;20317;-58
2024/03/01 00:53:17;;;;;;;41.57;32.87;;;8.90;99.90;;;;;;5021660;28;20179;-56
2024/03/01 00:55:43;;;;;;;46.83;35.30;;;8.90;99.30;;;;;;5021517;28;20198;-56
2024/03/01 00:58:09;;;;;;;45.30;34.27;;;8.90;99.90;;;;;;5022232;28;20563;-58
2024/03/01 01:00:34;;;;;;;46.50;34.17;;;8.90;99.90;;;;;;5022086;28;20191;-57
2024/03/01 01:03:00;;;;;;;41.63;33.20;;;8.80;99.90;;;;;;5022027;28;20191;-54
2024/03/01 01:05:26;;;;;;;46.13;34.80;;;8.80;99.90;;;;;;5022424;28;21137;-57
2024/03/01 01:07:51;;;;;;;39.53;33.50;;;8.80;99.90;;;;;;5021527;28;20183;-56
2024/03/01 01:10:17;;;;;;;40.73;33.07;;;8.80;99.90;;;;;;5022494;28;21180;-57
2024/03/01 01:12:43;;;;;;;52.07;34.80;;;8.70;99.90;;;;;;5020977;28;20214;-56
2024/03/01 01:15:09;;;;;;;43.93;33.87;;;8.70;99.90;;;;;;5021407;28;20226;-57
2024/03/01 01:17:34;;;;;;;45.97;33.80;;;8.70;99.90;;;;;;5021392;28;20801;-57
2024/03/01 01:20:00;;;;;;;45.30;34.03;;;8.70;99.90;;;;;;5021405;28;20432;-56
2024/03/01 01:22:26;;;;;;;43.50;34.10;;;8.70;99.90;;;;;;5021970;28;20179;-56
2024/03/01 01:24:53;;;;;;;41.00;33.80;;;8.70;99.90;;;;;;5019799;28;20193;-50
2024/03/01 01:27:18;;;;;;;47.07;32.80;;;8.70;99.90;;;;;;5021513;28;20793;-48
2024/03/01 01:29:44;;;;;;;42.70;33.67;;;8.70;99.90;;;;;;5021007;28;20435;-47
2024/03/01 01:32:10;;;;;;;46.70;35.30;;;8.70;99.90;;;;;;5021574;28;20311;-49
2024/03/01 01:34:36;;;;;;;46.67;34.47;;;8.70;99.90;;;;;;5021288;28;20589;-45
2024/03/01 01:37:03;;;;;;;47.87;36.07;;;8.70;99.90;;;;;;5020975;28;20190;-48
2024/03/01 01:39:29;;;;;;;47.20;34.33;;;8.70;99.90;;;;;;5021294;28;20183;-47
2024/03/01 01:41:55;;;;;;;42.80;33.80;;;8.70;99.90;;;;;;5020826;28;20461;-49
2024/03/01 01:44:20;;;;;;;47.53;35.53;;;8.60;99.90;;;;;;5021405;28;20512;-54
2024/03/01 01:46:49;;;;;;;49.57;36.00;;;8.60;99.90;;;;;;5021335;28;20185;-53
2024/03/01 01:49:19;;;;;;;46.00;34.20;;;8.60;99.90;;;;;;5021489;28;20635;-57
2024/03/01 01:51:46;;;;;;;44.30;36.20;;;8.60;99.90;;;;;;5021341;28;20476;-56
2024/03/01 09:04:55;;;;;;;32.40;28.90;;;12.20;99.90;;;;;;5880916;23;20396;31
2024/03/01 09:07:29;;;;;;;32.23;28.83;;;12.30;99.90;;;;;;4817700;29;20484;-55
2024/03/01 09:09:55;;;;;;;32.70;29.03;;;12.40;99.90;;;;;;4822589;29;20434;-55
2024/03/01 09:12:27;;;;;;;33.93;29.93;;;12.40;99.90;;;;;;4822753;29;20546;-50
2024/03/01 09:15:00;;;;;;;34.10;29.83;;;12.60;99.90;;;;;;4822754;29;20446;-57
2024/03/01 09:17:27;;;;;;;38.10;30.00;;;12.60;99.90;;;;;;4822357;29;20439;-55
2024/03/01 09:19:53;;;;;;;33.03;29.53;;;12.60;99.90;;;;;;4822124;29;20437;-56
2024/03/01 09:22:19;;;;;;;33.70;29.97;;;12.60;99.90;;;;;;4822119;29;20439;-51
2024/03/01 09:24:45;;;;;;;33.30;29.80;;;12.60;99.90;;;;;;4821807;29;20204;-50
2024/03/01 09:27:30;;;;;;;33.40;29.93;;;12.70;99.90;;;;;;4822108;29;20793;-48
2024/03/01 09:29:57;;;;;;;33.43;29.93;;;12.80;99.90;;;;;;4821625;29;20435;-49
2024/03/01 09:32:23;;;;;;;36.20;32.30;;;12.90;99.90;;;;;;4821173;29;20486;-52
2024/03/01 09:34:49;;;;;;;35.40;31.57;;;12.90;99.90;;;;;;4821442;29;20922;-51
2024/03/01 09:37:22;;;;;;;35.03;30.83;;;13.00;99.90;;;;;;4822054;29;20439;-49
2024/03/01 09:39:48;;;;;;;37.03;32.37;;;13.20;99.90;;;;;;4821735;29;20423;-52
2024/03/01 09:42:28;;;;;;;35.87;32.17;;;13.20;99.90;;;;;;4821867;29;20469;-56
2024/03/01 09:45:15;;;;;;;41.00;31.60;;;13.30;99.90;;;;;;4821700;29;21031;-55
2024/03/01 09:48:12;;;;;;;38.93;30.30;;;13.30;99.90;;;;;;4821715;29;20876;-57
2024/03/01 09:50:58;;;;;;;36.13;29.83;;;13.10;99.90;;;;;;4817011;29;20497;-57
2024/03/01 09:54:04;;;;;;;36.23;31.83;;;13.20;99.90;;;;;;4821987;29;20793;-57
2024/03/01 09:56:34;;;;;;;36.80;31.30;;;13.00;99.90;;;;;;4783556;30;20480;-57
2024/03/01 09:59:06;;;;;;;40.67;33.00;;;13.00;99.90;;;;;;4816569;29;20849;-54
2024/03/01 10:01:36;;;;;;;38.80;32.23;;;13.10;99.90;;;;;;4821162;29;21252;-55
2024/03/01 10:04:33;;;;;;;36.27;32.37;;;13.10;99.90;;;;;;4807558;29;20424;-55
2024/03/01 10:07:07;;;;;;;39.60;32.53;;;13.10;99.90;;;;;;4794858;29;20582;-55
2024/03/01 10:10:11;;;;;;;38.30;32.00;;;13.00;99.90;;;;;;4807401;29;20427;-54
2024/03/01 10:13:02;;;;;;;38.73;31.63;;;12.90;99.90;;;;;;4771124;29;20514;-57
2024/03/01 10:15:38;;;;;;;39.10;33.23;;;13.00;99.90;;;;;;4807270;29;20491;-56
2024/03/01 10:18:32;;;;;;;37.50;33.40;;;13.10;99.90;;;;;;4813130;29;20426;-57
2024/03/01 10:21:27;;;;;;;34.20;30.50;;;13.20;99.90;;;;;;4798942;29;20424;-54
2024/03/01 10:24:01;;;;;;;37.60;31.10;;;13.30;99.90;;;;;;4801049;29;20444;-56
2024/03/01 10:26:28;;;;;;;39.73;33.03;;;13.40;99.90;;;;;;4806281;29;20915;-53
2024/03/01 10:29:24;;;;;;;37.87;32.17;;;13.50;99.90;;;;;;4822159;29;20700;-56
2024/03/01 10:32:42;;;;;;;36.53;32.07;;;13.40;99.90;;;;;;4795743;29;20483;-55
2024/03/01 10:35:23;;;;;;;40.03;32.80;;;13.30;99.90;;;;;;4777585;29;21452;-54
2024/03/01 10:38:07;;;;;;;39.37;33.80;;;13.40;99.90;;;;;;4806820;29;20428;-56
2024/03/01 10:40:40;;;;;;;38.00;33.50;;;13.40;99.90;;;;;;4811250;29;20423;-49
2024/03/01 10:43:22;;;;;;;40.00;34.33;;;13.50;99.90;;;;;;4809293;29;20438;-53
2024/03/01 10:46:03;;;;;;;39.33;32.97;;;13.60;99.90;;;;;;4801359;29;20516;-48
2024/03/01 10:48:45;;;;;;;35.73;31.83;;;13.60;99.90;;;;;;4800029;29;20450;-47
2024/03/01 10:51:14;;;;;;;37.20;33.20;;;13.70;99.90;;;;;;4798753;29;20502;-50
2024/03/01 10:53:51;;;;;;;39.60;32.57;;;13.80;99.90;;;;;;4805809;29;20964;-50
2024/03/01 10:56:18;;;;;;;37.80;32.70;;;13.90;99.90;;;;;;4808127;29;20447;-48
2024/03/01 10:58:45;;;;;;;39.57;33.17;;;13.90;99.90;;;;;;4805239;29;20534;-47
2024/03/01 11:01:26;;;;;;;41.23;33.57;;;13.90;99.90;;;;;;4804725;29;20929;-50
2024/03/01 11:04:09;;;;;;;39.07;33.50;;;14.00;99.90;;;;;;4801079;29;20460;-51
2024/03/01 11:06:37;;;;;;;40.13;34.07;;;14.20;99.90;;;;;;4801489;29;20499;-49
2024/03/01 11:09:10;;;;;;;35.83;32.13;;;14.30;99.90;;;;;;4811235;29;20433;-46
2024/03/01 11:12:17;;;;;;;38.33;33.50;;;14.40;99.90;;;;;;4795370;29;20475;-50
2024/03/01 11:14:54;;;;;;;37.23;32.00;;;14.50;99.90;;;;;;4799873;29;20459;-55
2024/03/01 11:17:25;;;;;;;38.20;33.80;;;14.60;99.90;;;;;;4801139;29;20424;-49
2024/03/01 11:19:55;;;;;;;36.60;32.80;;;14.60;99.90;;;;;;4803026;29;20480;-55
2024/03/01 11:22:27;;;;;;;38.23;32.90;;;14.60;99.90;;;;;;4800387;29;20834;-56
2024/03/01 11:25:12;;;;;;;38.43;33.30;;;14.70;99.70;;;;;;4801149;29;21174;-54
2024/03/01 11:28:04;;;;;;;41.90;33.27;;;14.60;99.30;;;;;;4807269;29;20526;-52
2024/03/01 11:30:33;;;;;;;34.27;30.57;;;14.80;99.20;;;;;;4795124;29;20444;-48
2024/03/01 11:33:03;;;;;;;36.80;32.87;;;14.70;99.00;;;;;;4798933;29;20479;-50
2024/03/01 11:35:38;;;;;;;37.40;33.40;;;14.70;98.80;;;;;;4800782;29;20428;-47
2024/03/01 11:38:25;;;;;;;38.80;33.13;;;14.60;98.70;;;;;;4802489;29;20423;-52
2024/03/01 11:41:09;;;;;;;40.97;32.60;;;14.70;98.80;;;;;;4805807;29;20423;-51
2024/03/01 11:44:08;;;;;;;37.60;33.60;;;14.70;98.40;;;;;;4805704;29;20427;-47
2024/03/01 11:46:45;;;;;;;35.93;31.53;;;14.60;98.50;;;;;;4796439;29;20776;-50
2024/03/01 11:49:30;;;;;;;35.67;31.73;;;14.60;98.60;;;;;;4810378;29;20430;-47
2024/03/01 11:52:11;;;;;;;35.30;31.00;;;14.70;98.10;;;;;;4799701;29;20498;-50
2024/03/01 11:55:01;;;;;;;33.43;29.93;;;14.70;98.00;;;;;;4803250;29;20427;-53
2024/03/01 11:57:38;;;;;;;33.03;29.63;;;14.70;98.10;;;;;;4797375;29;20511;-49
2024/03/01 12:00:13;;;;;;;34.80;31.00;;;14.50;97.70;;;;;;4802468;29;21471;-51
2024/03/01 12:03:22;;;;;;;33.97;30.23;;;14.50;98.30;;;;;;4799553;29;20451;-47
2024/03/01 12:06:18;;;;;;;34.97;31.30;;;14.40;97.90;;;;;;4796717;29;20498;-47
2024/03/01 12:09:07;;;;;;;35.17;31.37;;;14.60;97.90;;;;;;4801421;29;20522;-50
2024/03/01 12:11:55;;;;;;;37.33;33.43;;;14.30;98.10;;;;;;4805327;29;20474;-52
2024/03/01 12:14:27;;;;;;;38.27;33.40;;;14.00;98.70;;;;;;4799565;29;20494;-47
2024/03/01 12:17:06;;;;;;;39.87;32.73;;;14.00;98.90;;;;;;4794865;29;20443;-44
2024/03/01 12:19:49;;;;;;;39.53;35.00;;;14.20;99.50;;;;;;4804277;29;20515;-49
2024/03/01 12:22:55;;;;;;;41.50;33.90;;;14.00;98.50;;;;;;4799874;29;20565;-50
2024/03/01 12:25:24;;;;;;;37.67;33.33;;;13.90;98.80;;;;;;4798398;29;20476;-49
2024/03/01 12:28:23;;;;;;;41.27;34.80;;;13.60;99.50;;;;;;4797130;29;20865;-47
2024/03/01 12:31:03;;;;;;;45.33;35.33;;;13.60;99.90;;;;;;4795621;29;20578;-47
2024/03/01 12:34:17;;;;;;;41.20;34.40;;;13.50;99.70;;;;;;4796237;29;20447;-54
2024/03/01 12:36:57;;;;;;;41.67;34.67;;;13.60;99.90;;;;;;4816495;29;20947;-51
2024/03/01 12:39:26;;;;;;;39.23;33.50;;;13.60;99.60;;;;;;4801895;29;20439;-53
2024/03/01 12:42:06;;;;;;;39.53;33.00;;;13.60;99.80;;;;;;4800231;29;20570;-58
2024/03/01 12:45:05;;;;;;;40.90;33.33;;;13.30;99.90;;;;;;4801792;29;20450;-56
2024/03/01 12:47:45;;;;;;;40.53;34.30;;;13.50;99.90;;;;;;4799684;29;20533;-58
2024/03/01 12:50:22;;;;;;;41.80;33.80;;;13.40;99.90;;;;;;4801368;29;20447;-57
2024/03/01 12:53:06;;;;;;;40.40;33.53;;;13.50;99.90;;;;;;4801051;29;20508;-55
2024/03/01 12:55:55;;;;;;;38.50;31.90;;;13.20;99.90;;;;;;4795952;29;20521;-59
2024/03/01 12:58:53;;;;;;;40.17;33.80;;;13.20;99.90;;;;;;4802244;29;20565;-57
2024/03/01 13:01:29;;;;;;;40.27;32.03;;;13.10;99.90;;;;;;4804010;29;20451;-56
2024/03/01 13:04:26;;;;;;;40.43;33.30;;;13.30;99.90;;;;;;4799581;29;20482;-58
2024/03/01 13:06:54;;;;;;;38.80;31.67;;;13.10;99.90;;;;;;4801624;29;20616;-55
2024/03/01 13:09:30;;;;;;;39.80;32.20;;;13.20;99.90;;;;;;4800764;29;21006;-55
2024/03/01 13:12:00;;;;;;;37.47;32.90;;;13.20;99.90;;;;;;4797345;29;20513;-53
2024/03/01 13:14:58;;;;;;;41.00;34.10;;;13.30;99.90;;;;;;4802501;29;20503;-54
2024/03/01 13:17:43;;;;;;;39.03;33.03;;;13.30;99.90;;;;;;4800707;29;20440;-56
2024/03/01 13:20:27;;;;;;;41.30;34.23;;;13.40;99.90;;;;;;4798755;29;20448;-56
2024/03/01 13:23:18;;;;;;;37.67;33.53;;;13.40;99.90;;;;;;4802095;29;20572;-55
2024/03/01 13:26:20;;;;;;;37.67;33.57;;;13.40;99.90;;;;;;4800296;29;20498;-56
2024/03/01 13:28:57;;;;;;;38.90;34.27;;;13.60;99.90;;;;;;4807749;29;20786;-58
2024/03/01 13:31:29;;;;;;;37.50;32.57;;;13.60;99.90;;;;;;4801083;29;20475;-54
2024/03/01 13:34:01;;;;;;;42.67;33.80;;;13.50;99.90;;;;;;4797769;29;20506;-55
2024/03/01 13:36:30;;;;;;;36.87;32.97;;;13.50;99.90;;;;;;4803218;29;20456;-56
2024/03/01 13:39:14;;;;;;;38.90;34.53;;;13.40;99.90;;;;;;4801974;29;20436;-51
2024/03/01 13:41:48;;;;;;;42.80;33.53;;;13.30;99.90;;;;;;4800090;29;20475;-49
2024/03/01 13:44:30;;;;;;;38.80;33.67;;;13.30;99.90;;;;;;4798131;29;20447;-47
2024/03/01 13:47:07;;;;;;;37.30;32.70;;;13.30;99.90;;;;;;4802239;29;20575;-46
2024/03/01 13:49:41;;;;;;;43.53;35.10;;;13.40;99.90;;;;;;4797840;29;20447;-44
2024/03/01 13:52:11;;;;;;;39.97;35.00;;;13.40;99.90;;;;;;4801730;29;20467;-52
2024/03/01 13:54:37;;;;;;;42.80;34.37;;;13.50;99.90;;;;;;4799815;29;20539;-47
2024/03/01 13:57:06;;;;;;;40.40;34.63;;;13.50;99.90;;;;;;4801896;29;20534;-51
2024/03/01 13:59:32;;;;;;;37.77;33.73;;;13.40;99.90;;;;;;4800079;29;20440;-47
2024/03/01 14:01:57;;;;;;;38.37;34.13;;;13.40;99.90;;;;;;4799059;29;20611;-46
2024/03/01 14:04:24;;;;;;;39.30;34.53;;;13.30;99.90;;;;;;4799630;29;20560;-50
2024/03/01 14:06:51;;;;;;;40.87;33.83;;;13.30;99.90;;;;;;4798269;29;20265;-51
2024/03/01 14:09:18;;;;;;;38.20;34.10;;;13.30;99.90;;;;;;4799644;29;20496;-49
2024/03/01 14:11:43;;;;;;;37.07;33.07;;;13.40;99.90;;;;;;4804285;29;21225;-45
2024/03/01 14:14:09;;;;;;;37.33;33.30;;;13.30;99.90;;;;;;4797743;29;20447;-48
2024/03/01 14:16:35;;;;;;;37.90;32.60;;;13.20;99.90;;;;;;4798261;29;20261;-45
2024/03/01 14:19:00;;;;;;;38.83;33.23;;;13.10;99.90;;;;;;4795135;29;20201;-48
2024/03/01 14:21:28;;;;;;;40.40;33.73;;;13.00;99.90;;;;;;4798600;29;20599;-46
2024/03/01 14:23:54;;;;;;;41.23;33.60;;;12.90;99.90;;;;;;4799232;29;20175;-46
2024/03/01 14:26:20;;;;;;;36.80;32.00;;;13.00;99.90;;;;;;4801430;29;20488;-47
2024/03/01 14:28:46;;;;;;;37.23;31.17;;;13.10;99.90;;;;;;4806005;29;20197;-50
2024/03/01 14:31:12;;;;;;;36.37;32.57;;;13.30;99.90;;;;;;4798997;29;20288;-55
2024/03/01 14:33:37;;;;;;;35.93;31.83;;;13.40;99.90;;;;;;4796034;29;20577;-56
2024/03/01 14:36:04;;;;;;;37.53;32.77;;;13.40;99.90;;;;;;4804732;29;20182;-55
2024/03/01 14:38:30;;;;;;;37.27;33.33;;;13.30;99.90;;;;;;4797670;29;20250;-54
2024/03/01 14:41:03;;;;;;;37.60;33.63;;;13.40;99.90;;;;;;4800873;29;20498;-55
2024/03/01 14:43:42;;;;;;;37.87;33.27;;;13.60;99.90;;;;;;4799530;29;20472;-54
2024/03/01 14:46:07;;;;;;;37.40;33.23;;;13.60;99.90;;;;;;4796420;29;21340;-57
2024/03/01 14:48:34;;;;;;;39.47;32.77;;;13.80;99.90;;;;;;4799129;29;20558;-57
2024/03/01 14:51:05;;;;;;;38.93;33.93;;;13.80;99.90;;;;;;4802227;29;20255;-54
2024/03/01 14:53:37;;;;;;;39.67;33.93;;;13.90;99.70;;;;;;4799490;29;21290;-55
2024/03/01 14:56:10;;;;;;;39.67;32.10;;;13.90;99.30;;;;;;4797605;29;20444;-57
2024/03/01 14:58:37;;;;;;;36.00;32.00;;;14.20;99.50;;;;;;4804696;29;20488;-56
2024/03/01 15:01:06;;;;;;;39.50;31.90;;;14.30;98.60;;;;;;4797827;29;20451;-55
2024/03/01 15:03:36;;;;;;;35.80;32.10;;;14.20;98.40;;;;;;4798510;29;20447;-55
2024/03/01 15:06:06;;;;;;;39.37;32.97;;;14.00;98.30;;;;;;4804996;29;21070;-53
2024/03/01 15:08:32;;;;;;;37.33;32.30;;;14.20;98.80;;;;;;4794915;29;21682;-54
2024/03/01 15:11:08;;;;;;;36.03;32.10;;;14.20;98.60;;;;;;4800110;29;20512;-55
2024/03/01 15:13:35;;;;;;;37.37;33.23;;;14.10;98.30;;;;;;4797738;29;21263;-55
2024/03/01 15:16:05;;;;;;;34.80;31.00;;;14.00;98.90;;;;;;4800459;29;20886;-57
2024/03/01 15:18:38;;;;;;;36.03;32.10;;;14.00;98.80;;;;;;4796470;29;20452;-56
2024/03/01 15:21:10;;;;;;;37.10;31.50;;;14.00;99.10;;;;;;4798896;29;20528;-52
2024/03/01 15:23:41;;;;;;;37.83;33.73;;;14.10;99.10;;;;;;4797999;29;20439;-55
2024/03/01 15:26:08;;;;;;;36.80;32.80;;;14.00;98.30;;;;;;4800009;29;20439;-53
2024/03/01 15:28:35;;;;;;;34.80;31.10;;;14.10;98.80;;;;;;4819175;29;20575;-47
2024/03/01 15:31:01;;;;;;;38.67;31.80;;;14.00;99.00;;;;;;4796572;29;20446;-50
2024/03/01 15:33:28;;;;;;;37.20;32.17;;;14.00;99.20;;;;;;4795087;29;20432;-48
2024/03/01 15:35:54;;;;;;;33.83;29.97;;;13.90;99.10;;;;;;4795875;29;20509;-48
2024/03/01 15:38:20;;;;;;;35.57;31.40;;;13.80;99.40;;;;;;4801645;29;20424;-47
2024/03/01 15:40:46;;;;;;;32.87;29.50;;;13.70;99.60;;;;;;4802057;29;20434;-45
2024/03/01 15:43:11;;;;;;;35.90;31.10;;;13.70;99.90;;;;;;4804911;29;20206;-47
2024/03/01 15:45:37;;;;;;;34.47;30.63;;;13.60;99.90;;;;;;4801436;29;21620;-51
2024/03/01 15:48:03;;;;;;;36.10;31.03;;;13.50;99.90;;;;;;4802496;29;20696;-54
2024/03/01 15:50:30;;;;;;;36.37;31.97;;;13.50;99.90;;;;;;4803321;29;20199;-47
2024/03/01 15:52:55;;;;;;;35.37;31.63;;;13.40;99.90;;;;;;4803253;29;20467;-48
2024/03/01 15:55:22;;;;;;;35.87;31.93;;;13.40;99.90;;;;;;4805065;29;20454;-48
2024/03/01 15:57:47;;;;;;;33.50;29.87;;;13.30;99.90;;;;;;4803880;29;20217;-51
2024/03/01 16:00:23;;;;;;;34.63;30.47;;;13.40;99.90;;;;;;4802552;29;20422;-48
2024/03/01 16:02:49;;;;;;;36.60;32.67;;;13.30;99.90;;;;;;4805095;29;20193;-51
2024/03/01 16:05:17;;;;;;;34.20;30.63;;;13.30;99.90;;;;;;4801354;29;20458;-50
2024/03/01 16:07:53;;;;;;;34.50;30.57;;;13.30;99.90;;;;;;4804425;29;20475;-48
2024/03/01 16:10:21;;;;;;;35.23;30.80;;;13.20;99.90;;;;;;4808226;29;20906;-50
2024/03/01 16:12:59;;;;;;;34.27;30.67;;;13.10;99.90;;;;;;4795960;29;20491;-50
2024/03/01 16:15:26;;;;;;;34.27;30.70;;;13.10;99.90;;;;;;4804075;29;20618;-49
2024/03/01 16:17:56;;;;;;;37.70;30.90;;;13.00;99.90;;;;;;4804735;29;20420;-48
2024/03/01 16:20:25;;;;;;;36.03;31.50;;;13.00;99.90;;;;;;4798205;29;20439;-49
2024/03/01 16:22:51;;;;;;;36.37;32.27;;;12.90;99.90;;;;;;4797114;29;21508;-49
2024/03/01 16:25:17;;;;;;;34.33;30.60;;;12.90;99.90;;;;;;4801107;29;20431;-57
2024/03/01 16:27:43;;;;;;;37.00;31.60;;;12.90;99.90;;;;;;4797418;29;20444;-57
2024/03/01 16:30:33;;;;;;;39.30;33.23;;;12.90;99.90;;;;;;4797030;29;21013;-62
2024/03/01 16:32:59;;;;;;;34.73;30.70;;;12.80;99.90;;;;;;4794584;29;20575;-54
2024/03/01 16:35:24;;;;;;;38.00;32.90;;;12.80;99.90;;;;;;4807211;29;20541;-54
2024/03/01 16:37:50;;;;;;;40.00;33.40;;;12.80;99.90;;;;;;4797288;29;20455;-58
2024/03/01 16:40:17;;;;;;;38.23;33.57;;;12.70;99.90;;;;;;4800769;29;20199;-55
2024/03/01 16:42:57;;;;;;;37.87;33.83;;;12.70;99.90;;;;;;4797031;29;20439;-56
2024/03/01 16:45:33;;;;;;;39.27;35.07;;;12.70;99.90;;;;;;4799815;29;20445;-51
2024/03/01 16:47:59;;;;;;;36.97;32.97;;;12.70;99.90;;;;;;4804397;29;20476;-50
2024/03/01 16:50:25;;;;;;;37.80;32.80;;;12.60;99.90;;;;;;4804972;29;20787;-52
2024/03/01 16:52:52;;;;;;;38.30;32.30;;;12.60;99.90;;;;;;4802544;29;20474;-48
2024/03/01 16:55:50;;;;;;;39.73;33.27;;;12.60;99.90;;;;;;4801099;29;20458;-49
2024/03/01 16:58:16;;;;;;;41.33;35.60;;;12.60;99.90;;;;;;4798494;29;20451;-50
2024/03/01 17:00:43;;;;;;;41.73;34.47;;;12.60;99.90;;;;;;4798185;29;20511;-57
2024/03/01 17:03:34;;;;;;;51.03;38.80;;;12.60;99.90;;;;;;4805996;29;20491;-54
2024/03/01 17:06:01;;;;;;;45.27;36.83;;;12.60;99.90;;;;;;4801943;29;20562;-55
2024/03/01 17:08:43;;;;;;;43.00;37.83;;;12.50;99.90;;;;;;4806770;29;20469;-55
2024/03/01 17:11:09;;;;;;;50.20;38.97;;;12.50;99.90;;;;;;4802661;29;21245;-48
2024/03/01 17:13:36;;;;;;;47.20;37.37;;;12.50;99.90;;;;;;4799485;29;20526;-49
2024/03/01 17:16:05;;;;;;;42.47;35.57;;;12.50;99.90;;;;;;4803298;29;20454;-54
2024/03/01 17:18:31;;;;;;;40.70;35.57;;;12.50;99.90;;;;;;4802960;29;20490;-46
2024/03/01 17:20:57;;;;;;;43.97;38.33;;;12.40;99.90;;;;;;4800496;29;20430;-46
2024/03/01 17:23:23;;;;;;;48.37;38.80;;;12.40;99.90;;;;;;4803223;29;20202;-51
2024/03/01 17:25:50;;;;;;;49.33;38.53;;;12.40;99.90;;;;;;4801604;29;20229;-54
2024/03/01 17:28:17;;;;;;;46.53;36.30;;;12.40;99.90;;;;;;4805037;29;20202;-48
2024/03/01 17:30:43;;;;;;;45.80;38.60;;;12.40;99.90;;;;;;4804746;29;20471;-47
2024/03/01 17:33:09;;;;;;;54.30;40.67;;;12.40;99.90;;;;;;4798165;29;21354;-45
2024/03/01 17:35:35;;;;;;;46.33;39.90;;;12.30;99.90;;;;;;4797744;29;20187;-51
2024/03/01 17:38:00;;;;;;;48.63;40.87;;;12.40;99.90;;;;;;4799404;29;20509;-49
2024/03/01 17:40:26;;;;;;;46.50;40.53;;;12.30;99.90;;;;;;4798139;29;20199;-49
2024/03/01 17:42:52;;;;;;;49.17;40.70;;;12.30;99.90;;;;;;4790530;29;20206;-51
2024/03/01 17:45:19;;;;;;;53.17;41.73;;;12.30;99.90;;;;;;4797596;29;20553;-47
2024/03/01 17:47:45;;;;;;;46.93;37.90;;;12.30;99.90;;;;;;4797581;29;20295;-53
2024/03/01 17:50:11;;;;;;;48.30;38.33;;;12.30;99.90;;;;;;4805804;29;21369;-53
2024/03/01 17:52:36;;;;;;;46.67;39.43;;;12.30;99.90;;;;;;4799884;29;20476;-50
2024/03/01 17:55:03;;;;;;;45.00;35.50;;;12.20;99.90;;;;;;4799546;29;20463;-54
2024/03/01 17:57:29;;;;;;;42.47;36.33;;;12.30;99.90;;;;;;4802785;29;20198;-55
2024/03/01 17:59:56;;;;;;;48.03;37.43;;;12.30;99.90;;;;;;4800137;29;20444;-56
2024/03/01 18:02:23;;;;;;;48.80;38.60;;;12.20;99.90;;;;;;4801367;29;20197;-53
2024/03/01 18:04:48;;;;;;;51.10;39.40;;;12.20;99.90;;;;;;4799600;29;20465;-55
2024/03/01 18:07:15;;;;;;;51.03;38.67;;;12.20;99.90;;;;;;4796656;29;20498;-55
2024/03/01 18:09:41;;;;;;;42.87;36.13;;;12.20;99.90;;;;;;4799701;29;20239;-52
2024/03/01 18:12:07;;;;;;;46.13;37.83;;;12.10;99.90;;;;;;4804267;29;20479;-55
2024/03/01 18:14:33;;;;;;;43.87;37.57;;;12.10;99.90;;;;;;4795754;29;21019;-57
2024/03/01 18:16:59;;;;;;;46.83;37.37;;;12.10;99.90;;;;;;4797560;29;20198;-59
2024/03/01 18:19:25;;;;;;;43.97;37.20;;;12.10;99.90;;;;;;4802876;29;21018;-57
2024/03/01 18:21:50;;;;;;;46.33;37.93;;;12.10;99.90;;;;;;4804664;29;20468;-56
2024/03/01 18:24:16;;;;;;;48.93;38.10;;;12.10;99.90;;;;;;4822515;29;20293;-50
2024/03/01 18:26:42;;;;;;;45.87;38.77;;;12.00;99.90;;;;;;4802460;29;20210;-46
2024/03/01 18:29:08;;;;;;;46.97;39.70;;;12.00;99.90;;;;;;4798370;29;20198;-53
2024/03/01 18:31:35;;;;;;;45.57;38.37;;;12.00;99.90;;;;;;4798868;29;20471;-53
2024/03/01 18:34:02;;;;;;;46.47;39.70;;;12.00;99.90;;;;;;4799099;29;21471;-52
2024/03/01 18:36:28;;;;;;;52.73;41.90;;;11.90;99.90;;;;;;4795512;29;20440;-51
2024/03/01 18:38:54;;;;;;;49.13;43.10;;;11.90;99.90;;;;;;4802291;29;20443;-51
2024/03/01 18:41:20;;;;;;;57.83;45.13;;;11.90;99.90;;;;;;4797389;29;20448;-52
2024/03/01 18:43:45;;;;;;;57.73;47.00;;;11.90;99.90;;;;;;4795665;29;20899;-51
2024/03/01 18:46:12;;;;;;;55.10;45.60;;;11.80;99.90;;;;;;4798906;29;20594;-48
2024/03/01 18:48:38;;;;;;;59.23;47.20;;;11.80;99.90;;;;;;4797414;29;20191;-48
2024/03/01 18:51:04;;;;;;;51.73;45.03;;;11.80;99.90;;;;;;4812769;29;20451;-53
2024/03/01 18:53:29;;;;;;;53.33;45.33;;;11.70;99.90;;;;;;4796343;29;20584;-57
2024/03/01 18:55:56;;;;;;;59.87;43.93;;;11.70;99.90;;;;;;4804749;29;20447;-54
2024/03/01 18:58:22;;;;;;;55.70;46.00;;;11.70;99.90;;;;;;4795242;29;20456;-50
2024/03/01 19:00:48;;;;;;;54.97;43.50;;;11.60;99.90;;;;;;4797151;29;20508;-57
2024/03/01 19:03:13;;;;;;;51.20;43.67;;;11.60;99.90;;;;;;4795797;29;22043;-54
2024/03/01 19:05:39;;;;;;;53.87;41.47;;;11.60;99.90;;;;;;4795319;29;20249;-50
2024/03/01 19:08:05;;;;;;;51.93;43.20;;;11.60;99.90;;;;;;4797901;29;20671;-51
2024/03/01 19:10:30;;;;;;;53.40;45.33;;;11.60;99.90;;;;;;4797730;29;20198;-50
2024/03/01 19:12:56;;;;;;;52.87;43.47;;;11.50;99.90;;;;;;4801226;29;20484;-50
2024/03/01 19:15:21;;;;;;;82.20;59.37;;;11.50;99.90;;;;;;4797836;29;20186;-48
2024/03/01 19:17:47;;;;;;;78.70;56.53;;;11.50;99.90;;;;;;4804457;29;20190;-50
2024/03/01 19:20:13;;;;;;;64.87;50.57;;;11.50;99.90;;;;;;4799592;29;20194;-49
2024/03/01 19:22:38;;;;;;;60.03;49.37;;;11.40;99.90;;;;;;4795094;29;20190;-50
2024/03/01 19:25:05;;;;;;;60.07;47.23;;;11.40;99.90;;;;;;4797011;29;20194;-45
2024/03/01 19:27:31;;;;;;;55.90;44.70;;;11.30;99.90;;;;;;4799299;29;20206;-51
2024/03/01 19:29:58;;;;;;;55.27;45.60;;;11.30;99.90;;;;;;4797296;29;20440;-49
2024/03/01 19:32:24;;;;;;;56.07;45.33;;;11.30;99.90;;;;;;4796946;29;20487;-48
2024/03/01 19:34:49;;;;;;;57.20;45.63;;;11.30;99.90;;;;;;4794705;29;20804;-48
2024/03/01 19:37:18;;;;;;;53.47;43.93;;;11.30;99.90;;;;;;4798012;29;20210;-48
2024/03/01 19:39:45;;;;;;;56.33;46.40;;;11.30;99.90;;;;;;4794814;29;20206;-48
2024/03/01 19:42:11;;;;;;;55.50;46.37;;;11.30;99.90;;;;;;4796556;29;20452;-53
2024/03/01 19:44:37;;;;;;;60.93;46.93;;;11.30;99.90;;;;;;4796088;29;21033;-53
2024/03/01 19:47:04;;;;;;;56.30;46.07;;;11.30;99.90;;;;;;4796255;29;20924;-55
2024/03/01 19:49:30;;;;;;;55.00;45.07;;;11.30;99.90;;;;;;4798491;29;20452;-54
2024/03/01 19:51:56;;;;;;;59.43;46.80;;;11.30;99.90;;;;;;4795915;29;20491;-55
2024/03/01 19:54:24;;;;;;;57.30;45.63;;;11.30;99.90;;;;;;4822201;29;20205;-55
2024/03/01 19:56:53;;;;;;;56.33;45.30;;;11.30;99.90;;;;;;4796702;29;20442;-57
2024/03/01 19:59:19;;;;;;;58.50;45.37;;;11.30;99.90;;;;;;4799362;29;20454;-56
2024/03/01 20:01:48;;;;;;;56.63;47.00;;;11.20;99.90;;;;;;4797337;29;20453;-56
2024/03/01 20:04:13;;;;;;;54.47;45.23;;;11.30;99.90;;;;;;4798378;29;20456;-54